Saturday, November 01, 2014
00:27 UTC
  |  Log In   |  Register Free
Airport Search:

Rwj Airpark Airport
(54T)

Rwj Airpark Airport Diagram
No Airport Diagram Available

FAA data valid effective September 18, 2014 - November 13, 2014 (unless otherwise noted).

 
 
 
 
 
 
 
 
 
 
 
 
 
 

Current Aviation Weather for Rwj Airpark Airport (54T)

METAR data is unavailable for 54T. The nearest METAR location is at KEFD (18.7 nm SW from 54T).

The most recent METAR observation for KEFD was updated at: 0011
METAR Summary (Translated METAR)
KEFD
312150Z 33012KT 10SM FEW250 24/07 A3015
(18.7 nm SW from 54T)
KHOU
312353Z 36014KT 10SM FEW250 21/04 A3017 RMK AO2 SLP221 T02110044 10256 20211 53013
(23.6 nm SW from 54T)
TAF Summary (Translated TAF)
KEFD
3120/0202 35012G18KT 9999 SKC 510005 QNH3015INS BECMG 0101/0102 01009KT 9999 SKC QNH3018INS BECMG 0122/0123 05006KT 9999 FEW250 QNH3028INS TX23/3120Z TN09/0110Z
KHOU
(6.7 nm NW from KEFD)
312030Z 3121/0118 34011KT P6SM FEW180 SCT250 TEMPO 3121/3123 35014G21KT FM010200 01007KT P6SM SKC FM011500 05008KT P6SM SKC
  Airport Weather Conditions for 54T

Current weather conditions are
not available for 54T


The nearest NOAA weather station
is at EFD, (18.7 nm SW from 54T)
  
 Current Weather at EFD
75° F
A Few Clouds
Northwest winds at 13.8 mph
EFD NOAA Radar

Pressure: 30.15 in
Humidity: 34%
Wind: Northwest at 13.8 MPH (12 KT)
Dew Point: 44.6°F
Visibility: 10.00 mi


Airport Weather Forecast for 54T

Translated METAR and TAF for KEFD
Translated METAR for KEFD (0022 UTC 01 November 2014)
found at http://aviationweather.gov/adds/metars/
 
METAR text: KEFD 312150Z 33012KT 10SM FEW250 24/07 A3015
Conditions at: KEFD (HOUSTON/ELLINGTO, TX, US) observed 2150 UTC 31 October 2014
Temperature: 24.0°C (75°F)
Dewpoint: 7.0°C (45°F) [RH = 34%]
Pressure (altimeter): 30.15 inches Hg (1021.1 mb)
Winds: from the NNW (330 degrees) at 14 MPH (12 knots; 6.2 m/s)
Visibility: 10 or more miles (16+ km)
Ceiling: at least 12,000 feet AGL
Clouds: few clouds at 25000 feet AGL
Weather: no significant weather observed at this time
Translated TAF for KEFD
Forecast for: KEFD (HOUSTON/ELLINGTO, TX, US)
TAF Text: TAF KEFD 3120/0202 35012G18KT 9999 SKC 510005 QNH3015INS
Forecast period: 2000 UTC 31 October 2014 to 0100 UTC 01 November 2014
Forecast type: FROM: standard forecast or significant change
Winds: from the N (350 degrees) at 14 MPH (12 knots; 6.2 m/s)
gusting to 21 MPH (18 knots; 9.4 m/s)
Visibility: 6 or more miles (10+ km)
Clouds: clear skies
Turbulence: Light turbulence expected at surface extending to 5000 feet (1524m) AGL
Weather: no significant weather forecast for this period
TAF Text: BECMG 0101/0102 01009KT 9999 SKC QNH3018INS
Forecast period: 0100 to 2200 UTC 01 November 2014
Forecast type: BECOMING: Conditions expected to become as follows by 0200 UTC 01 November 2014
Winds: from the N (10 degrees) at 10 MPH (9 knots; 4.7 m/s)
Visibility: 6 or more miles (10+ km)
Clouds: clear skies
Weather: no significant weather forecast for this period
TAF Text: BECMG 0122/0123 05006KT 9999 FEW250 QNH3028INS TX23/3120Z TN09/0110Z
Forecast period: 2200 UTC 01 November 2014 to 0200 UTC 02 November 2014
Forecast type: BECOMING: Conditions expected to become as follows by 2300 UTC 01 November 2014
Winds: from the NE (50 degrees) at 7 MPH (6 knots; 3.1 m/s)
Visibility: 6 or more miles (10+ km)
Clouds: few clouds at 25000 feet AGL
Weather: no significant weather forecast for this period

Find All Airport Services Find A Hotel Find A Rental Car Find A Golf Course Find A Restaurant $100 Hamburger



FBO's on the Field
FBO Company Facility Photos Services Transportation Aviation Fuel Prices: Prices include tax
Catering Weather Repair Courtesy Rental Type 100LL JetA JetA+ MOGAS 8087
 
Bay Area Aviation Inc

This FBO has not yet been rated
FS:Avfuel
Last Updated: Oct-28
Login to update fuel prices
SS:
Contact Bay Area Aviation IncMore FBO Information
 
Add another FBO Facility Photos Catering Weather Repair Courtesy Rental Type 100LL JetA JetA+ MOGAS 8087
Services Transportation Aviation Fuel Prices: Prices include tax


model-print
model-print
model-print
model-print